Time;durP1;ratioP1;P1;durP2;ratioP2;P2;SDS_P1;SDS_P2;PMS_P1;PMS_P2;Temp;Humidity;BMP_temperature;BMP_pressure;BME280_temperature;BME280_humidity;BME280_pressure;Samples;Min_cycle;Max_cycle;Signal;HPM_P1;HPM_P2
2023/03/12 00:00:15;;;;;;;8.10;5.40;;;;;;;1.38;68.53;98376.06;4984754;28;104010;-57
2023/03/12 00:02:43;;;;;;;8.37;5.23;;;;;;;1.31;68.93;98385.06;4985642;28;103294;-56
2023/03/12 00:05:11;;;;;;;9.27;5.87;;;;;;;1.31;68.85;98382.44;4984052;28;102735;-58
2023/03/12 00:07:41;;;;;;;10.63;5.03;;;;;;;1.29;69.14;98379.06;4984577;28;102723;-57
2023/03/12 00:10:11;;;;;;;10.77;4.47;;;;;;;1.35;68.81;98385.78;4984288;28;104054;-57
2023/03/12 00:12:39;;;;;;;9.00;5.07;;;;;;;1.35;68.69;98391.81;4985333;28;103301;-57
2023/03/12 00:15:10;;;;;;;8.17;5.07;;;;;;;1.32;69.11;98384.13;4989428;28;103924;-57
2023/03/12 00:17:37;;;;;;;8.17;5.03;;;;;;;1.23;69.20;98391.47;4988264;28;104051;-57
2023/03/12 00:20:06;;;;;;;7.67;5.30;;;;;;;1.15;69.20;98395.19;4984623;28;104266;-62
2023/03/12 00:22:34;;;;;;;7.93;5.03;;;;;;;1.13;69.50;98386.63;4990824;28;103335;-62
2023/03/12 00:25:02;;;;;;;12.00;5.40;;;;;;;0.75;70.25;98395.06;4986768;28;102651;-62
2023/03/12 00:27:34;;;;;;;9.73;5.23;;;;;;;0.76;71.13;98391.53;4985420;28;104056;-62
2023/03/12 00:30:02;;;;;;;6.55;4.90;;;;;;;1.39;69.36;98388.19;4992640;28;105097;-62
2023/03/12 00:32:32;;;;;;;8.43;4.17;;;;;;;1.10;67.68;98389.34;4987250;28;103244;-62
2023/03/12 00:35:00;;;;;;;6.80;4.63;;;;;;;0.70;71.10;98386.59;4989607;28;102807;-62
2023/03/12 00:37:28;;;;;;;8.13;5.37;;;;;;;0.90;70.52;98388.44;5005071;27;104277;-61
2023/03/12 00:39:56;;;;;;;5.03;4.10;;;;;;;0.86;70.15;98392.06;4992573;28;104207;-62
2023/03/12 00:42:24;;;;;;;9.23;4.93;;;;;;;0.80;70.60;98384.47;4993068;28;103443;-62
2023/03/12 00:44:52;;;;;;;8.53;4.67;;;;;;;0.30;71.55;98382.03;4990442;28;102625;-62
2023/03/12 00:47:20;;;;;;;8.67;5.33;;;;;;;0.14;72.41;98380.84;4988968;28;104086;-62
2023/03/12 00:49:49;;;;;;;7.73;4.73;;;;;;;-0.10;73.79;98379.13;4990761;28;103251;-62
2023/03/12 00:52:17;;;;;;;8.00;4.83;;;;;;;0.07;73.90;98376.78;4993499;28;104479;-62
2023/03/12 00:54:45;;;;;;;9.53;5.03;;;;;;;0.08;73.15;98375.03;4992002;28;102799;-62
2023/03/12 00:57:13;;;;;;;9.47;5.50;;;;;;;0.14;73.38;98380.84;4984831;28;102844;-62
2023/03/12 00:59:41;;;;;;;6.90;5.13;;;;;;;0.34;72.30;98368.00;4983308;28;104138;-62
2023/03/12 01:02:09;;;;;;;8.17;5.20;;;;;;;0.34;72.32;98367.13;4991928;28;105149;-62
2023/03/12 01:04:37;;;;;;;9.90;6.00;;;;;;;0.44;72.12;98379.75;4985903;28;102666;-62
2023/03/12 01:07:07;;;;;;;9.63;5.23;;;;;;;0.11;73.09;98375.78;4988123;28;104054;-62
2023/03/12 01:09:35;;;;;;;9.50;5.47;;;;;;;0.04;74.66;98379.50;4983268;28;102998;-62
2023/03/12 01:12:02;;;;;;;8.70;4.90;;;;;;;0.17;73.90;98383.34;4983084;28;103316;-62
2023/03/12 01:14:30;;;;;;;11.03;6.00;;;;;;;-0.06;75.10;98378.13;4987707;28;102889;-62
2023/03/12 01:16:58;;;;;;;11.30;6.10;;;;;;;-0.05;74.97;98378.06;4989604;28;104463;-62
2023/03/12 01:19:26;;;;;;;9.00;5.33;;;;;;;-0.12;75.85;98383.53;4989176;28;103315;-62
2023/03/12 01:21:54;;;;;;;9.87;6.07;;;;;;;-0.07;76.06;98381.63;4989638;28;104133;-62
2023/03/12 01:24:23;;;;;;;12.23;7.33;;;;;;;0.00;75.17;98377.91;4987050;28;103067;-57
2023/03/12 01:26:51;;;;;;;8.63;5.10;;;;;;;0.07;75.49;98378.53;4987695;28;102647;-57
2023/03/12 01:29:19;;;;;;;7.87;5.53;;;;;;;0.24;74.56;98377.03;4978782;28;103223;-57
2023/03/12 01:31:47;;;;;;;7.90;5.20;;;;;;;0.53;74.37;98379.41;4983831;28;103195;-57
2023/03/12 01:34:15;;;;;;;8.70;5.23;;;;;;;0.59;73.09;98379.19;4985181;28;102746;-57
2023/03/12 01:36:46;;;;;;;8.13;5.67;;;;;;;0.28;73.78;98376.00;4987321;28;103629;-56
2023/03/12 01:39:15;;;;;;;9.43;5.67;;;;;;;0.31;74.73;98380.28;4986277;28;103197;-57
2023/03/12 01:41:44;;;;;;;10.93;5.93;;;;;;;-0.17;76.95;98386.28;4992877;28;103181;-57
2023/03/12 01:44:14;;;;;;;10.70;6.03;;;;;;;-0.06;77.45;98391.13;4983488;28;102754;-57
2023/03/12 01:46:44;;;;;;;9.77;6.03;;;;;;;-0.09;77.04;98386.03;4984221;28;102732;-57
2023/03/12 01:49:24;;;;;;;10.93;6.07;;;;;;;0.03;77.29;98388.19;4992155;28;103280;-57
2023/03/12 01:51:57;;;;;;;9.77;6.00;;;;;;;0.14;76.96;98387.81;4985402;28;103244;-56
2023/03/12 01:54:32;;;;;;;8.77;5.30;;;;;;;0.06;77.04;98380.28;4989678;28;103571;-57
2023/03/12 01:57:04;;;;;;;8.00;6.47;;;;;;;0.07;77.85;98389.78;4988026;28;104260;-57
2023/03/12 01:59:37;;;;;;;8.40;5.90;;;;;;;0.15;78.03;98384.31;4985622;28;103345;-57
2023/03/12 02:02:07;;;;;;;9.20;5.87;;;;;;;0.42;76.94;98381.56;4987845;28;104055;-57
2023/03/12 02:04:37;;;;;;;6.23;4.63;;;;;;;0.50;76.46;98379.53;4987472;28;102736;-57
2023/03/12 02:07:09;;;;;;;8.43;5.87;;;;;;;0.51;76.60;98376.03;4987898;28;102649;-57
2023/03/12 02:09:40;;;;;;;9.67;5.90;;;;;;;0.40;76.29;98374.72;4987616;28;104195;-57
2023/03/12 02:12:10;;;;;;;8.50;4.97;;;;;;;0.52;76.73;98377.72;4983295;28;103178;-57
2023/03/12 02:14:38;;;;;;;10.37;5.70;;;;;;;0.37;76.89;98373.09;4986401;28;102839;-62
2023/03/12 02:17:07;;;;;;;12.43;5.60;;;;;;;0.46;76.33;98377.94;4987290;28;103005;-62
2023/03/12 02:19:44;;;;;;;7.37;4.87;;;;;;;0.44;76.89;98374.56;4986296;28;103256;-57
2023/03/12 02:22:15;;;;;;;11.07;5.57;;;;;;;0.55;76.38;98376.75;4999829;28;103269;-62
2023/03/12 02:24:47;;;;;;;10.07;6.00;;;;;;;0.61;76.59;98383.47;4984237;28;102756;-62
2023/03/12 02:27:18;;;;;;;8.60;5.80;;;;;;;0.34;77.23;98377.53;4987114;28;103061;-57
2023/03/12 02:29:46;;;;;;;11.87;5.90;;;;;;;0.34;76.91;98372.34;4985174;28;103207;-62
2023/03/12 02:32:20;;;;;;;8.93;5.30;;;;;;;0.40;77.51;98375.56;4985384;28;103186;-62
2023/03/12 02:34:49;;;;;;;11.03;6.00;;;;;;;0.47;76.68;98364.06;4987445;28;102629;-62
2023/03/12 02:37:17;;;;;;;11.47;6.20;;;;;;;0.21;79.07;98366.75;4984617;28;104147;-62
2023/03/12 02:39:53;;;;;;;6.70;6.00;;;;;;;0.28;78.27;98377.78;4985357;28;103203;-62
2023/03/12 02:42:24;;;;;;;7.90;5.30;;;;;;;0.48;77.71;98373.53;4985834;28;103190;-62
2023/03/12 02:44:52;;;;;;;8.47;5.73;;;;;;;0.64;77.24;98371.22;4986297;28;102783;-62
2023/03/12 02:47:20;;;;;;;12.00;6.60;;;;;;;0.43;77.59;98367.66;5004293;28;102768;-62
2023/03/12 02:49:48;;;;;;;11.80;5.63;;;;;;;0.65;77.44;98366.88;4986658;28;105061;-62
2023/03/12 02:52:16;;;;;;;10.00;6.00;;;;;;;0.67;76.56;98375.47;4987581;28;103289;-62
2023/03/12 02:54:43;;;;;;;9.47;6.67;;;;;;;0.79;76.85;98377.56;4990260;28;102852;-61
2023/03/12 02:57:12;;;;;;;8.68;6.30;;;;;;;0.92;75.82;98371.00;5003836;28;102659;-62
2023/03/12 02:59:41;;;;;;;9.57;6.80;;;;;;;0.98;75.09;98365.56;4988604;28;105420;-62
2023/03/12 03:02:11;;;;;;;9.77;6.40;;;;;;;1.48;74.35;98368.75;4981955;28;104146;-62
2023/03/12 03:04:39;;;;;;;6.70;5.80;;;;;;;1.83;72.83;98369.84;4990936;28;104531;-62
2023/03/12 03:07:07;;;;;;;7.88;5.95;;;;;;;2.01;71.88;98367.34;4991128;28;103170;-62
2023/03/12 03:09:35;;;;;;;8.30;6.43;;;;;;;1.82;71.03;98365.59;4991726;28;103719;-62
2023/03/12 03:12:04;;;;;;;8.98;6.60;;;;;;;1.52;72.25;98367.69;4980624;28;103180;-62
2023/03/12 03:14:33;;;;;;;11.30;7.10;;;;;;;1.26;73.57;98368.78;4991657;28;102702;-62
2023/03/12 03:17:03;;;;;;;10.38;7.10;;;;;;;1.00;75.49;98353.34;4983583;28;104303;-62
2023/03/12 03:19:31;;;;;;;9.60;6.28;;;;;;;1.34;73.83;98348.50;4987356;28;103176;-62
2023/03/12 03:21:59;;;;;;;8.68;6.10;;;;;;;1.86;72.48;98346.28;4987207;28;103217;-62
2023/03/12 03:24:27;;;;;;;7.50;6.68;;;;;;;2.16;71.10;98347.59;4984095;28;104002;-62
2023/03/12 03:26:54;;;;;;;8.83;6.30;;;;;;;2.31;70.76;98339.06;4984353;28;103354;-62
2023/03/12 03:29:22;;;;;;;7.30;6.32;;;;;;;2.21;69.41;98332.59;4982153;28;103208;-62
2023/03/12 03:31:50;;;;;;;7.35;5.55;;;;;;;2.37;70.39;98335.34;4984280;28;103803;-62
2023/03/12 03:34:20;;;;;;;9.35;7.35;;;;;;;1.65;71.58;98330.69;4984579;28;103130;-62
2023/03/12 03:36:48;;;;;;;9.02;6.70;;;;;;;1.98;71.32;98340.56;4991355;28;102890;-62
2023/03/12 03:39:16;;;;;;;7.25;6.15;;;;;;;2.39;69.80;98344.78;4988617;28;103279;-62
2023/03/12 03:41:46;;;;;;;10.40;6.50;;;;;;;2.12;69.92;98340.78;4986015;28;103399;-62
2023/03/12 03:44:16;;;;;;;11.07;7.20;;;;;;;2.30;69.75;98340.00;4984980;28;102864;-62
2023/03/12 03:46:45;;;;;;;7.15;5.63;;;;;;;2.66;69.20;98337.47;4986687;28;102989;-62
2023/03/12 03:49:14;;;;;;;6.72;5.82;;;;;;;2.74;69.31;98343.19;4982569;28;105886;-62
2023/03/12 03:51:43;;;;;;;8.13;7.05;;;;;;;2.66;68.51;98345.28;4992967;28;103453;-62
2023/03/12 03:54:15;;;;;;;9.20;6.40;;;;;;;2.54;68.82;98345.84;4986913;28;102866;-62
2023/03/12 03:56:46;;;;;;;7.45;6.03;;;;;;;2.91;68.05;98344.09;4990700;28;104390;-62
2023/03/12 03:59:14;;;;;;;7.78;6.30;;;;;;;3.03;67.02;98344.41;4975777;28;103549;-62
2023/03/12 04:01:43;;;;;;;8.90;6.57;;;;;;;2.62;68.12;98339.38;4987615;28;104096;-62
2023/03/12 04:04:11;;;;;;;8.10;6.20;;;;;;;2.83;68.81;98338.38;4983511;28;103239;-62
2023/03/12 04:06:39;;;;;;;8.10;6.13;;;;;;;2.77;68.07;98323.00;4996816;28;102799;-62
2023/03/12 04:09:08;;;;;;;7.60;5.95;;;;;;;2.61;68.71;98316.78;4988790;28;102791;-63
2023/03/12 04:11:39;;;;;;;9.02;6.40;;;;;;;2.60;68.67;98324.72;4984777;28;103110;-62
2023/03/12 04:14:11;;;;;;;7.47;6.05;;;;;;;2.82;68.73;98326.25;4983116;28;102607;-61
2023/03/12 04:16:41;;;;;;;9.23;6.47;;;;;;;2.80;68.21;98328.09;4984087;28;104432;-61
2023/03/12 04:19:12;;;;;;;7.23;5.93;;;;;;;3.08;67.23;98322.41;4986297;28;103280;-61
2023/03/12 04:21:40;;;;;;;7.63;5.90;;;;;;;2.91;66.83;98324.97;4988707;28;105099;-61
2023/03/12 04:24:14;;;;;;;8.80;5.93;;;;;;;3.01;67.49;98322.75;4991063;28;102768;-61
2023/03/12 04:26:43;;;;;;;7.57;5.90;;;;;;;2.95;68.17;98328.28;4989076;28;102927;-61
2023/03/12 04:29:11;;;;;;;8.95;5.90;;;;;;;2.92;67.46;98330.09;4988679;28;105179;-61
2023/03/12 04:31:40;;;;;;;6.93;5.55;;;;;;;3.32;66.56;98315.13;4997026;28;103530;-61
2023/03/12 04:34:09;;;;;;;6.95;5.65;;;;;;;3.41;66.02;98325.97;4987024;28;102944;-61
2023/03/12 04:36:42;;;;;;;7.85;5.60;;;;;;;3.28;65.79;98335.34;4991226;28;102891;-60
2023/03/12 04:39:11;;;;;;;7.63;5.70;;;;;;;3.44;65.42;98332.81;4983611;28;103253;-61
2023/03/12 04:41:40;;;;;;;7.67;5.70;;;;;;;3.48;66.03;98327.34;4983954;28;104694;-60
2023/03/12 04:44:11;;;;;;;5.93;4.80;;;;;;;3.53;65.83;98331.50;4983734;28;102898;-60
2023/03/12 04:46:41;;;;;;;6.82;5.13;;;;;;;3.52;66.13;98328.03;4988587;28;102745;-61
2023/03/12 04:49:12;;;;;;;6.32;5.25;;;;;;;3.61;65.09;98327.59;4987214;28;103001;-61
2023/03/12 04:51:41;;;;;;;8.23;5.80;;;;;;;3.23;66.25;98331.25;4987612;28;103829;-61
2023/03/12 04:54:09;;;;;;;8.68;5.80;;;;;;;3.33;66.40;98332.50;4981683;28;103295;-60
2023/03/12 04:56:40;;;;;;;7.50;5.43;;;;;;;3.39;66.12;98326.97;4985863;28;103123;-61
2023/03/12 04:59:09;;;;;;;6.78;5.75;;;;;;;3.39;66.33;98316.53;4983288;28;103534;-60
2023/03/12 05:01:37;;;;;;;5.90;4.85;;;;;;;3.69;65.78;98315.00;4988021;28;104146;-60
2023/03/12 05:04:12;;;;;;;6.57;5.30;;;;;;;3.54;64.96;98318.34;4989773;28;103591;-61
2023/03/12 05:06:40;;;;;;;7.82;5.90;;;;;;;3.54;65.61;98315.75;4984673;28;104178;-60
2023/03/12 05:09:08;;;;;;;7.03;5.20;;;;;;;3.58;64.96;98314.69;4989395;28;104226;-61
2023/03/12 05:11:37;;;;;;;7.85;5.30;;;;;;;3.45;65.50;98318.84;4987600;28;103181;-60
2023/03/12 05:14:10;;;;;;;6.63;5.53;;;;;;;3.69;64.93;98315.00;4980509;28;103071;-61
2023/03/12 05:16:38;;;;;;;7.07;5.50;;;;;;;3.54;65.24;98305.31;4992179;28;103756;-61
2023/03/12 05:19:07;;;;;;;5.72;5.10;;;;;;;3.80;64.54;98309.22;4978895;28;105062;-61
2023/03/12 05:21:35;;;;;;;7.60;5.27;;;;;;;3.85;64.33;98310.66;4983555;28;105401;-61
2023/03/12 05:24:04;;;;;;;7.70;5.22;;;;;;;3.78;64.79;98304.06;4987053;28;102886;-60
2023/03/12 05:26:33;;;;;;;7.20;5.43;;;;;;;3.69;64.56;98307.16;4990711;28;103869;-61
2023/03/12 05:29:24;;;;;;;6.67;5.40;;;;;;;3.81;64.97;98309.16;4983005;28;103839;-61
2023/03/12 05:31:53;;;;;;;6.18;5.00;;;;;;;3.84;65.45;98314.22;4986187;28;103289;-55
2023/03/12 05:34:21;;;;;;;6.22;4.95;;;;;;;3.78;64.54;98316.28;4983801;28;102857;-55
2023/03/12 05:36:49;;;;;;;6.10;5.00;;;;;;;4.01;63.61;98306.31;4984621;28;102627;-56
2023/03/12 05:39:21;;;;;;;6.50;5.32;;;;;;;3.74;64.63;98315.59;4984209;28;103341;-56
2023/03/12 05:41:49;;;;;;;7.97;4.80;;;;;;;3.49;66.40;98307.31;4985256;28;103303;-55
2023/03/12 05:44:19;;;;;;;7.47;4.73;;;;;;;3.40;67.03;98313.81;4985752;28;102885;-55
2023/03/12 05:46:53;;;;;;;7.93;4.53;;;;;;;3.31;66.65;98313.44;4985701;28;104083;-55
2023/03/12 05:49:26;;;;;;;7.10;5.30;;;;;;;2.84;67.56;98328.78;4985938;28;103310;-56
2023/03/12 05:51:55;;;;;;;5.50;4.80;;;;;;;3.33;67.51;98332.50;4985710;28;103035;-55
2023/03/12 05:54:24;;;;;;;5.40;4.40;;;;;;;3.83;66.57;98333.44;4982346;28;102980;-55
2023/03/12 05:56:54;;;;;;;6.63;4.77;;;;;;;3.41;66.49;98325.13;4986223;28;102986;-55
2023/03/12 05:59:24;;;;;;;6.90;4.53;;;;;;;3.28;68.19;98335.34;4986170;28;104551;-55
2023/03/12 06:01:54;;;;;;;5.70;4.07;;;;;;;3.30;68.23;98332.63;4986744;28;103266;-55
2023/03/12 06:04:23;;;;;;;7.63;4.93;;;;;;;3.24;68.27;98331.19;4991497;28;102788;-56
2023/03/12 06:06:52;;;;;;;8.37;4.37;;;;;;;3.24;69.63;98331.19;4987535;28;102678;-56
2023/03/12 06:09:20;;;;;;;5.73;4.43;;;;;;;3.14;70.06;98332.56;4993363;28;103483;-56
2023/03/12 06:11:48;;;;;;;7.97;5.33;;;;;;;3.06;71.76;98324.22;4997109;28;103205;-56
2023/03/12 06:14:16;;;;;;;6.57;4.50;;;;;;;2.85;72.64;98331.31;4992843;28;102684;-56
2023/03/12 06:16:44;;;;;;;7.80;4.57;;;;;;;2.89;72.82;98327.63;4989158;28;102723;-56
2023/03/12 06:19:14;;;;;;;5.43;4.60;;;;;;;2.89;73.12;98322.41;4990225;28;103800;-56
2023/03/12 06:21:46;;;;;;;7.73;5.07;;;;;;;3.04;73.03;98314.78;5002477;28;103198;-56
2023/03/12 06:24:14;;;;;;;7.50;4.43;;;;;;;2.99;73.68;98322.84;5001680;28;103008;-56
2023/03/12 06:26:45;;;;;;;7.60;5.07;;;;;;;2.76;75.03;98323.06;4982285;28;102763;-56
2023/03/12 06:29:13;;;;;;;8.77;5.20;;;;;;;2.76;74.85;98326.53;4984214;28;104189;-56
2023/03/12 06:31:42;;;;;;;5.00;4.20;;;;;;;2.91;74.21;98323.22;4983025;28;103387;-56
2023/03/12 06:34:10;;;;;;;6.47;5.10;;;;;;;2.74;75.56;98322.31;4981122;28;104121;-56
2023/03/12 06:36:40;;;;;;;6.07;4.10;;;;;;;2.87;76.19;98313.81;4984407;28;102827;-56
2023/03/12 06:39:08;;;;;;;6.27;4.47;;;;;;;2.92;75.63;98317.06;4978901;28;104387;-55
2023/03/12 06:41:36;;;;;;;6.33;4.20;;;;;;;2.84;76.65;98313.97;4989696;28;103182;-56
2023/03/12 06:44:05;;;;;;;7.33;5.60;;;;;;;2.65;76.73;98313.16;4986313;28;103241;-56
2023/03/12 06:46:35;;;;;;;6.90;5.60;;;;;;;2.94;76.71;98303.94;4983159;28;103834;-56
2023/03/12 06:49:03;;;;;;;6.67;5.47;;;;;;;2.67;78.56;98303.47;4979679;28;103811;-55
2023/03/12 06:51:31;;;;;;;6.80;5.53;;;;;;;2.75;79.53;98303.13;4975763;28;104343;-56
2023/03/12 06:54:01;;;;;;;7.30;5.50;;;;;;;2.75;80.36;98303.13;4985053;28;103183;-56
2023/03/12 06:56:29;;;;;;;9.67;4.97;;;;;;;2.89;80.00;98301.53;4984279;28;102698;-56
2023/03/12 06:58:57;;;;;;;7.33;5.40;;;;;;;2.67;82.21;98313.91;4983209;28;104588;-56
2023/03/12 07:01:26;;;;;;;7.97;5.47;;;;;;;2.72;83.50;98319.75;4981869;28;103200;-56
2023/03/12 07:03:54;;;;;;;6.57;4.70;;;;;;;2.89;81.67;98327.63;5001684;28;102745;-56
2023/03/12 07:06:23;;;;;;;8.83;4.90;;;;;;;2.85;82.99;98325.25;4979125;28;103202;-56
2023/03/12 07:08:52;;;;;;;10.17;5.13;;;;;;;2.86;83.65;98322.56;4982623;28;103204;-56
2023/03/12 07:11:21;;;;;;;6.07;4.40;;;;;;;2.84;84.24;98320.94;4986250;28;103196;-56
2023/03/12 07:13:50;;;;;;;7.23;4.90;;;;;;;2.99;84.39;98320.22;4984747;28;102902;-55
2023/03/12 07:16:18;;;;;;;6.03;4.77;;;;;;;3.08;84.19;98317.19;4998936;28;102752;-56
2023/03/12 07:18:46;;;;;;;8.53;4.93;;;;;;;3.05;84.78;98316.47;4997128;28;103828;-55
2023/03/12 07:21:21;;;;;;;6.40;4.97;;;;;;;3.18;85.02;98317.56;4990848;28;103203;-57
2023/03/12 07:23:49;;;;;;;6.27;4.77;;;;;;;3.11;84.36;98326.63;4988643;28;102707;-56
2023/03/12 07:26:23;;;;;;;6.30;4.83;;;;;;;3.10;85.55;98319.69;4991316;28;103165;-56
2023/03/12 07:28:51;;;;;;;6.73;5.30;;;;;;;3.13;85.53;98319.56;4996467;28;103851;-56
2023/03/12 07:31:19;;;;;;;6.37;5.00;;;;;;;3.12;86.30;98320.47;4992020;28;104114;-56
2023/03/12 07:33:50;;;;;;;10.00;5.73;;;;;;;3.30;85.69;98332.63;4997178;28;103808;-56
2023/03/12 07:36:18;;;;;;;6.30;4.37;;;;;;;3.46;85.28;98328.34;4995833;28;103260;-56
2023/03/12 07:38:46;;;;;;;7.70;5.27;;;;;;;3.56;85.14;98333.97;4994822;28;103376;-56
2023/03/12 07:41:14;;;;;;;6.60;4.67;;;;;;;3.37;86.61;98323.56;4986525;28;103365;-56
2023/03/12 07:43:47;;;;;;;9.93;5.67;;;;;;;3.40;86.72;98326.88;4994283;28;102839;-56
2023/03/12 07:46:15;;;;;;;5.97;4.63;;;;;;;3.53;87.00;98324.53;4996020;28;103168;-56
2023/03/12 07:48:43;;;;;;;7.77;5.20;;;;;;;3.30;86.52;98327.41;4992961;28;104182;-56
2023/03/12 07:51:12;;;;;;;9.00;4.67;;;;;;;3.47;86.51;98323.06;4995168;28;103917;-56
2023/03/12 07:53:40;;;;;;;6.63;4.60;;;;;;;3.60;86.25;98318.06;4986355;28;102692;-56
2023/03/12 07:56:23;;;;;;;6.30;4.47;;;;;;;3.59;85.70;98326.00;4980171;28;102785;-56
2023/03/12 07:59:15;;;;;;;7.63;4.50;;;;;;;3.60;86.65;98317.22;4991889;28;104114;-56
2023/03/12 08:01:43;;;;;;;6.03;4.20;;;;;;;3.63;86.96;98320.53;4994143;28;102998;-56
2023/03/12 08:04:13;;;;;;;10.73;4.70;;;;;;;3.88;85.80;98320.97;4992146;28;102700;-57
2023/03/12 08:06:41;;;;;;;5.00;4.50;;;;;;;3.88;86.47;98328.81;4995538;28;102975;-56
2023/03/12 08:09:10;;;;;;;6.70;4.30;;;;;;;4.56;82.79;98329.56;4998158;28;103187;-56
2023/03/12 08:11:38;;;;;;;5.97;4.10;;;;;;;4.86;80.95;98327.03;4992298;28;103210;-56
2023/03/12 08:14:06;;;;;;;5.90;4.07;;;;;;;4.96;79.91;98323.84;4993796;28;102856;-56
2023/03/12 08:16:35;;;;;;;5.23;4.73;;;;;;;4.79;81.22;98320.47;4998979;28;102756;-56
2023/03/12 08:19:03;;;;;;;9.20;5.30;;;;;;;4.91;80.31;98331.09;4997189;28;103400;-56
2023/03/12 08:21:31;;;;;;;6.87;4.53;;;;;;;4.76;80.78;98326.72;4993282;28;103216;-57
2023/03/12 08:23:59;;;;;;;5.03;4.37;;;;;;;4.70;80.79;98329.66;4995108;28;103438;-57
2023/03/12 08:26:27;;;;;;;5.77;4.43;;;;;;;4.06;84.20;98325.25;4978910;28;102691;-57
2023/03/12 08:28:55;;;;;;;7.90;5.13;;;;;;;4.08;84.41;98326.00;4991760;28;103261;-57
2023/03/12 08:31:23;;;;;;;5.97;4.60;;;;;;;4.17;83.69;98329.06;4991018;28;103799;-56
2023/03/12 08:33:52;;;;;;;6.93;5.00;;;;;;;4.22;84.11;98330.50;4993632;28;102928;-57
2023/03/12 08:36:21;;;;;;;5.43;4.70;;;;;;;4.30;84.79;98335.31;4995779;28;103023;-57
2023/03/12 08:38:49;;;;;;;5.83;4.47;;;;;;;4.25;84.89;98338.19;4994374;28;104053;-56
2023/03/12 08:41:17;;;;;;;5.23;4.47;;;;;;;4.28;86.63;98340.66;4990711;28;105695;-56
2023/03/12 08:43:45;;;;;;;6.13;5.27;;;;;;;4.40;87.08;98340.03;4995462;28;102734;-57
2023/03/12 08:46:13;;;;;;;7.60;5.20;;;;;;;4.42;85.93;98337.31;4996119;28;102614;-56
2023/03/12 08:48:42;;;;;;;7.60;5.20;;;;;;;4.47;86.05;98340.53;4995423;28;103215;-56
2023/03/12 08:51:11;;;;;;;6.37;4.83;;;;;;;4.32;85.82;98336.13;4995647;28;103179;-56
2023/03/12 08:53:41;;;;;;;7.20;4.90;;;;;;;4.50;85.07;98330.75;4996424;28;102945;-56
2023/03/12 08:56:09;;;;;;;7.87;5.23;;;;;;;4.57;85.82;98336.50;4994906;28;102579;-57
2023/03/12 08:58:39;;;;;;;6.00;5.40;;;;;;;4.80;86.08;98332.63;4997072;28;104145;-56
2023/03/12 09:01:11;;;;;;;6.77;5.80;;;;;;;4.86;85.24;98330.50;4996024;28;103218;-57
2023/03/12 09:03:40;;;;;;;8.27;5.37;;;;;;;4.99;85.26;98323.69;4997341;28;102774;-56
2023/03/12 09:06:14;;;;;;;6.50;5.17;;;;;;;4.99;85.27;98313.22;4995328;28;104009;-56
2023/03/12 09:08:44;;;;;;;5.97;5.30;;;;;;;5.16;85.24;98320.97;4997619;28;103255;-56
2023/03/12 09:11:13;;;;;;;6.80;5.03;;;;;;;5.24;84.04;98313.53;4993899;28;103172;-57
2023/03/12 09:13:41;;;;;;;8.23;5.63;;;;;;;5.08;84.05;98322.31;4995431;28;102598;-57
2023/03/12 09:16:29;;;;;;;8.87;6.33;;;;;;;5.21;84.32;98318.94;4997387;28;103861;-56
2023/03/12 09:18:57;;;;;;;10.13;7.10;;;;;;;5.40;85.22;98312.63;4995133;28;104099;-57
2023/03/12 09:21:27;;;;;;;7.97;5.97;;;;;;;5.61;83.82;98321.88;4995833;28;103382;-56
2023/03/12 09:23:55;;;;;;;9.83;5.77;;;;;;;5.66;83.87;98325.06;4994459;28;102696;-57
2023/03/12 09:26:23;;;;;;;7.07;5.57;;;;;;;5.82;84.19;98323.22;4995850;28;103905;-56
2023/03/12 09:28:51;;;;;;;10.00;5.97;;;;;;;6.00;83.37;98322.19;4994684;28;103282;-56
2023/03/12 09:31:19;;;;;;;7.37;5.40;;;;;;;6.10;82.92;98327.72;4995748;28;103172;-57
2023/03/12 09:33:47;;;;;;;7.37;5.07;;;;;;;5.97;84.50;98322.38;4995921;28;102667;-57
2023/03/12 09:36:15;;;;;;;6.13;5.50;;;;;;;6.18;84.04;98325.47;4997412;28;102603;-56
2023/03/12 09:38:44;;;;;;;7.17;6.27;;;;;;;6.10;83.65;98336.44;4994700;28;103293;-57
2023/03/12 09:41:18;;;;;;;7.53;5.57;;;;;;;6.28;83.47;98335.31;4991388;28;103199;-57
2023/03/12 09:43:52;;;;;;;7.50;5.80;;;;;;;6.07;84.04;98331.34;4996030;28;103373;-57
2023/03/12 09:46:25;;;;;;;9.07;5.30;;;;;;;5.94;84.66;98330.41;4996256;28;102909;-57
2023/03/12 09:48:58;;;;;;;5.57;4.93;;;;;;;6.18;85.04;98328.09;4992241;28;103197;-60
2023/03/12 09:51:33;;;;;;;6.33;5.10;;;;;;;6.27;85.02;98336.25;4991358;28;103221;-57
2023/03/12 09:54:06;;;;;;;7.40;5.50;;;;;;;6.43;85.33;98332.72;4991058;28;102661;-57
2023/03/12 09:56:34;;;;;;;6.10;5.13;;;;;;;6.51;84.88;98333.09;5001791;28;102880;-58
2023/03/12 09:59:03;;;;;;;7.10;5.20;;;;;;;6.86;83.07;98321.22;4988709;28;103832;-57
2023/03/12 10:01:40;;;;;;;9.17;6.30;;;;;;;6.96;83.58;98327.59;4990162;28;103715;-57
2023/03/12 10:04:29;;;;;;;5.53;4.87;;;;;;;7.28;82.89;98326.34;4995121;28;102794;-57
2023/03/12 10:07:08;;;;;;;7.97;5.57;;;;;;;7.74;81.96;98326.81;4996389;28;104068;-57
2023/03/12 10:10:03;;;;;;;8.47;6.17;;;;;;;7.51;83.22;98330.97;4989413;28;103740;-57
2023/03/12 10:12:43;;;;;;;6.97;5.20;;;;;;;7.95;82.03;98324.50;4997337;28;102990;-57
2023/03/12 10:15:26;;;;;;;5.67;5.10;;;;;;;8.64;79.19;98326.75;4996658;28;102619;-57
2023/03/12 10:18:08;;;;;;;10.50;7.50;;;;;;;8.44;80.07;98332.56;4996023;28;102707;-57
2023/03/12 10:20:51;;;;;;;6.83;6.13;;;;;;;8.33;79.27;98335.94;4992333;28;103349;-57
2023/03/12 10:23:30;;;;;;;8.80;6.70;;;;;;;8.32;80.09;98328.13;4996567;28;103352;-57
2023/03/12 10:26:05;;;;;;;7.30;6.30;;;;;;;8.22;81.66;98327.91;4997462;28;104627;-64
2023/03/12 10:28:37;;;;;;;9.30;6.70;;;;;;;8.01;81.65;98329.34;5014685;27;102775;-64
2023/03/12 10:31:12;;;;;;;8.53;6.27;;;;;;;8.44;82.13;98328.16;4994207;28;103481;-64
2023/03/12 10:33:47;;;;;;;8.77;6.00;;;;;;;8.27;81.38;98330.22;4985859;28;104070;-63
2023/03/12 10:36:18;;;;;;;10.00;6.17;;;;;;;8.25;80.84;98330.34;4991639;28;103529;-64
2023/03/12 10:38:48;;;;;;;7.63;6.20;;;;;;;7.82;83.28;98336.81;4994053;28;103778;-64
2023/03/12 10:41:20;;;;;;;7.43;6.20;;;;;;;8.02;83.07;98346.84;4991585;28;103204;-65
2023/03/12 10:43:49;;;;;;;9.67;6.70;;;;;;;7.94;81.74;98349.16;4992521;28;103832;-65
2023/03/12 10:46:40;;;;;;;6.67;5.90;;;;;;;8.54;80.80;98355.50;4987277;28;104219;-65
2023/03/12 10:49:30;;;;;;;9.53;6.13;;;;;;;8.80;79.29;98345.78;4991659;28;104049;-65
2023/03/12 10:52:04;;;;;;;5.63;5.00;;;;;;;8.69;80.16;98358.88;4986951;28;103198;-65
2023/03/12 10:54:36;;;;;;;6.40;4.80;;;;;;;8.29;81.60;98355.50;4989949;28;104181;-65
2023/03/12 10:57:07;;;;;;;8.00;5.53;;;;;;;8.27;82.04;98356.53;4989045;28;103082;-65
2023/03/12 10:59:37;;;;;;;7.47;5.50;;;;;;;8.24;82.67;98362.84;4992770;28;104034;-65
2023/03/12 11:02:29;;;;;;;5.90;4.77;;;;;;;8.34;83.19;98363.09;4989312;28;103250;-65
2023/03/12 11:04:58;;;;;;;7.27;6.13;;;;;;;8.38;86.39;98359.31;4988293;28;103161;-65
2023/03/12 11:07:29;;;;;;;3.77;3.47;;;;;;;8.70;88.33;98361.38;4990765;28;102657;-65
2023/03/12 11:10:22;;;;;;;2.93;2.73;;;;;;;9.07;90.44;98357.00;4989711;28;104143;-65
2023/03/12 11:13:01;;;;;;;2.23;1.70;;;;;;;9.26;92.99;98354.72;4987615;28;103585;-66
2023/03/12 11:15:38;;;;;;;2.97;1.80;;;;;;;9.60;92.82;98361.00;4990273;28;103173;-65
2023/03/12 11:18:22;;;;;;;2.93;1.80;;;;;;;9.70;93.12;98354.13;4992079;28;102686;-65
2023/03/12 11:20:55;;;;;;;1.60;1.50;;;;;;;10.10;92.01;98359.06;4988477;28;102832;-65
2023/03/12 11:23:27;;;;;;;1.37;1.27;;;;;;;10.57;90.25;98358.94;4983950;28;103242;-66
2023/03/12 11:25:59;;;;;;;1.80;1.60;;;;;;;10.46;89.71;98367.69;4991509;28;102923;-65
2023/03/12 11:28:36;;;;;;;2.47;1.40;;;;;;;10.37;90.55;98349.06;4991172;28;102708;-65
2023/03/12 11:31:09;;;;;;;1.87;1.27;;;;;;;10.57;90.65;98351.00;4987776;28;102677;-65
2023/03/12 11:33:38;;;;;;;2.13;1.23;;;;;;;10.69;89.35;98349.22;4988775;28;103685;-65
2023/03/12 11:36:20;;;;;;;1.33;1.17;;;;;;;11.33;87.60;98343.13;4988751;28;103173;-66
2023/03/12 11:38:59;;;;;;;3.20;1.37;;;;;;;11.09;87.04;98345.09;4986390;28;103145;-65
2023/03/12 11:41:40;;;;;;;2.57;1.10;;;;;;;11.18;85.92;98346.16;4991354;28;104263;-65
2023/03/12 11:44:21;;;;;;;1.20;1.00;;;;;;;11.49;84.33;98342.72;4992366;28;103280;-65
2023/03/12 11:47:03;;;;;;;3.13;1.17;;;;;;;11.64;83.72;98341.47;4978376;28;102945;-65